Terminal Aerodrome Forecast
Issued by NWS

Home | Current Version | Previous Version | Graphics & Text | Print | Product List | Glossary On
Versions: 1 2 3 4 5 6 7 8 9 10 11 12 13 14 15 16 17
466
FTUS43 KBIS 182108 AAA
TAFDIK
TAF AMD
KDIK 182108Z 1821/1918 26013G20KT P6SM SKC
     FM182300 26012KT P6SM FEW200
     FM190200 21007KT P6SM FEW200
     FM190500 18008KT P6SM FEW150
     FM191200 21007KT P6SM FEW150=

USA.gov is the U.S. government's official web portal to all federal, state and local government web resources and services.